Lotniskowe dane METAR     EFOU Oulu Airport
Temperatura
20°C Temperatura
18°C Punkt rosy
88% Wilgotność



Wiatr
13 KM/H
8 MPH
4 M/S
7 KTS



200°
SSW
Warunki bieżące

Area Deszcz Area Deszcz
Ciśnienie 1012.92 (hPa) - 29.91 (inHg)
Widoczność 6.2 (mil) - 10 (km)
Lotnisko
Kod lotniska EFOU

Położenie: Oulu Airport
Odległość: 83 (km)

Metar:
EFOU 030450Z AUTO 20007KT 9999 VCSH SCT008 BKN033 //////CB 20/18 Q1013

Czas: 03-07-2022 07:50 EEST